General Juan N Alvarez International Airport
MMAA : rendu visible

Aérodrome :











RETROUVEZ-NOUS SUR...

 
LOGIN :

S'inscrire | Disclaimer

   EN    FR    IT 

 









Légende :    VFR   VFR Marginal   IFR   IFR Intensif   IFR Très Intensif
Visi : 
Plafond : 
>= 8 km
>= 3000ft
5 à 8 km
1000 à 3000 ft
1500m à 5 km
500 à 1000 ft
800 à 1500m
200 à 500 ft
< 800m
< 200 ft
Symboles :   Orages  Brouillard  Fortes neiges  Fortes précipitations  Vent > 20 kt






- Altitude de l'aérodrome : 16 ft
- Code IATA : ACA


MMAA - General Juan N Alvarez International

DERNIER METAR :
  • 250750Z 01004KT 6SM FEW020TCU SCT300 24/22 A2996 RMK 8/202 HZY

METARs EXPIRÉS :
  • 250642Z 35005KT 6SM FEW015TCU SCT300 25/22 A2997 RMK 8/202 HZY

TAF TAF MMAA
Valide du 25 à 06h jusqu'au 26 à 12h UTC


250523Z 2506/2612 00000KT 6SM HZ SCT015 TX31/2520Z TN24/2512Z SCT250
FM251800 23010KT P6SM SCT015 BKN250
FM260600 00000KT 6SM HZ SCT250



MET'MAP, la Météo Aéronautique d'un coup d'oeil ! - Copyright ORBIFLY Décembre 2007 - Disclaimer

ORBIFLY MET'MAP TEAM :

Programmation & Développement : Alexandra Zaïnal
Sur une idée originale de : Baudouin d'Aumeries
Assistance à la programmation : Marc-Olivier Méhu
Soutien technique & logistique : Manuel Goepfert

Contact : metmap@orbifly.com




SOURCES & CREDITS :

   NOAA       Earth
Advisory